createdAt,value
2022-12-13T00:05:34.236Z,-5.20
2022-12-13T00:11:36.164Z,-5.20
2022-12-13T00:17:37.809Z,-5.20
2022-12-13T00:23:39.600Z,-5.20
2022-12-13T00:29:41.326Z,-5.30
2022-12-13T00:35:43.019Z,-5.40
2022-12-13T00:41:45.463Z,-5.50
2022-12-13T00:47:47.135Z,-5.50
2022-12-13T00:53:48.783Z,-5.50
2022-12-13T00:59:50.432Z,-5.50
2022-12-13T01:06:17.976Z,-5.50
2022-12-13T01:12:13.792Z,-5.50
2022-12-13T01:18:18.962Z,-5.50
2022-12-13T01:24:22.872Z,-5.60
2022-12-13T01:30:24.685Z,-5.60
2022-12-13T01:36:27.382Z,-5.50
2022-12-13T01:42:30.092Z,-5.50
2022-12-13T01:48:34.226Z,-5.70
2022-12-13T01:54:39.202Z,-5.80
2022-12-13T02:00:48.720Z,-5.80
2022-12-13T02:06:50.399Z,-5.80
2022-12-13T02:12:52.447Z,-5.90
2022-12-13T02:19:00.529Z,-5.90
2022-12-13T02:25:05.422Z,-5.90
2022-12-13T02:31:11.964Z,-5.90
2022-12-13T02:37:17.864Z,-6.00
2022-12-13T02:43:22.969Z,-6.00
2022-12-13T02:49:26.869Z,-6.10
2022-12-13T02:55:28.941Z,-6.10
2022-12-13T03:01:51.244Z,-6.00
2022-12-13T03:08:01.806Z,-5.90
2022-12-13T03:14:05.959Z,-6.00
2022-12-13T03:20:12.472Z,-6.10
2022-12-13T03:26:26.767Z,-6.10
2022-12-13T03:32:28.406Z,-6.10
2022-12-13T03:38:30.458Z,-6.30
2022-12-13T03:44:32.074Z,-6.20
2022-12-13T03:50:33.870Z,-6.20
2022-12-13T03:56:35.559Z,-6.10
2022-12-13T04:02:37.228Z,-5.90
2022-12-13T04:08:39.361Z,-5.90
2022-12-13T04:14:41.009Z,-5.90
2022-12-13T04:20:42.678Z,-6.10
2022-12-13T04:26:44.297Z,-6.10
2022-12-13T04:32:45.933Z,-6.00
2022-12-13T04:38:47.639Z,-6.00
2022-12-13T04:44:50.385Z,-6.20
2022-12-13T04:50:51.983Z,-6.40
2022-12-13T04:56:53.576Z,-6.40
2022-12-13T05:02:55.204Z,-6.30
2022-12-13T05:09:00.679Z,-6.20
2022-12-13T05:15:02.848Z,-6.20
2022-12-13T05:21:05.371Z,-6.40
2022-12-13T05:27:24.065Z,-6.40
2022-12-13T05:33:27.715Z,-6.30
2022-12-13T05:39:30.266Z,-6.50
2022-12-13T05:45:32.744Z,-6.50
2022-12-13T05:51:34.682Z,-6.50
2022-12-13T05:57:36.829Z,-6.20
2022-12-13T06:03:38.936Z,-6.50
2022-12-13T06:09:41.056Z,-6.40
2022-12-13T06:15:44.735Z,-6.30
2022-12-13T06:21:46.760Z,-6.10
2022-12-13T06:27:48.417Z,-6.40
2022-12-13T06:33:50.316Z,-6.40
2022-12-13T06:39:51.996Z,-6.10
2022-12-13T06:45:53.656Z,-6.50
2022-12-13T06:51:55.293Z,-6.80
2022-12-13T06:57:58.112Z,-6.90
2022-12-13T07:03:59.740Z,-6.80
2022-12-13T07:10:01.421Z,-6.80
2022-12-13T07:16:03.202Z,-6.50
2022-12-13T07:22:07.515Z,-6.50
2022-12-13T07:28:09.183Z,-6.60
2022-12-13T07:34:15.484Z,-6.90
2022-12-13T07:40:17.838Z,-6.90
2022-12-13T07:46:23.585Z,-7.00
2022-12-13T07:52:34.746Z,-6.70
2022-12-13T07:58:36.501Z,-6.70
2022-12-13T08:04:38.722Z,-6.30
2022-12-13T08:10:40.496Z,-6.50
2022-12-13T08:16:42.187Z,-6.60
2022-12-13T08:22:44.008Z,-6.50
2022-12-13T08:28:51.374Z,-6.40
2022-12-13T08:34:52.992Z,-5.80
2022-12-13T08:40:58.502Z,-6.00
2022-12-13T08:47:00.189Z,-5.60
2022-12-13T08:53:01.843Z,-5.70
2022-12-13T08:59:03.533Z,-5.50
2022-12-13T09:05:05.790Z,-5.40
2022-12-13T09:11:10.696Z,-5.50
2022-12-13T09:17:24.285Z,-5.20
2022-12-13T09:23:26.388Z,-4.90
2022-12-13T09:29:28.209Z,-4.90
2022-12-13T09:35:30.696Z,-4.70
2022-12-13T09:41:40.930Z,-4.70
2022-12-13T09:47:47.492Z,-4.60
2022-12-13T09:53:50.487Z,-4.50
2022-12-13T09:59:55.909Z,-4.50
2022-12-13T10:06:23.471Z,-4.40
2022-12-13T10:12:25.911Z,-4.30
2022-12-13T10:18:38.229Z,-4.20
2022-12-13T10:25:05.490Z,-4.00
2022-12-13T10:31:07.742Z,-3.70
2022-12-13T10:37:29.202Z,-3.30
2022-12-13T10:43:32.049Z,-3.30
2022-12-13T10:49:38.933Z,-3.10
2022-12-13T10:55:40.620Z,-2.80
2022-12-13T11:01:42.263Z,-2.50
2022-12-13T11:07:43.960Z,-2.40
2022-12-13T11:13:46.837Z,-2.20
2022-12-13T11:19:50.109Z,-2.20
2022-12-13T11:25:56.259Z,-1.90
2022-12-13T11:32:03.979Z,-1.80
2022-12-13T11:38:24.157Z,-1.50
2022-12-13T11:44:26.125Z,-1.30
2022-12-13T11:50:39.248Z,-1.20
2022-12-13T11:56:43.148Z,-1.00
2022-12-13T12:02:47.447Z,-0.70
2022-12-13T12:08:56.245Z,-0.60
2022-12-13T12:15:05.812Z,-0.60
2022-12-13T12:21:37.138Z,-0.70
2022-12-13T12:28:03.215Z,-0.90
2022-12-13T12:34:07.888Z,-1.10
2022-12-13T12:40:09.533Z,-1.10
2022-12-13T12:46:42.164Z,-1.30
2022-12-13T12:53:12.345Z,-1.10
2022-12-13T12:59:20.199Z,-1.20
2022-12-13T13:05:26.514Z,-1.30
2022-12-13T13:11:29.892Z,-1.20
2022-12-13T13:17:31.548Z,-1.40
2022-12-13T13:23:40.578Z,-1.70
2022-12-13T13:29:43.327Z,-1.80
2022-12-13T13:35:48.012Z,-2.00
2022-12-13T13:41:49.650Z,-2.10
2022-12-13T13:48:15.108Z,-2.20
2022-12-13T13:54:37.421Z,-2.40
2022-12-13T14:00:48.564Z,-2.60
2022-12-13T14:07:08.712Z,-2.80
2022-12-13T14:13:29.684Z,-2.90
2022-12-13T14:20:01.646Z,-3.10
2022-12-13T14:26:12.554Z,-3.10
2022-12-13T14:32:27.193Z,-3.20
2022-12-13T14:38:30.999Z,-3.30
2022-12-13T14:44:36.058Z,-3.40
2022-12-13T14:50:38.363Z,-3.50
2022-12-13T14:56:54.348Z,-3.60
2022-12-13T15:02:58.270Z,-3.70
2022-12-13T15:08:59.901Z,-3.80
2022-12-13T15:15:02.779Z,-3.90
2022-12-13T15:21:23.805Z,-4.00
2022-12-13T15:27:25.940Z,-4.10
2022-12-13T15:33:33.330Z,-4.40
2022-12-13T15:39:38.881Z,-4.50
2022-12-13T15:45:44.544Z,-4.40
2022-12-13T15:52:21.544Z,-4.60
2022-12-13T15:58:25.663Z,-4.70
2022-12-13T16:04:31.239Z,-4.80
2022-12-13T16:10:33.441Z,-4.90
2022-12-13T16:16:35.085Z,-4.90
2022-12-13T16:22:36.713Z,-4.90
2022-12-13T16:28:38.325Z,-5.00
2022-12-13T16:34:40.036Z,-5.10
2022-12-13T16:40:42.011Z,-5.10
2022-12-13T16:47:12.022Z,-5.10
2022-12-13T16:53:05.254Z,-5.20
2022-12-13T16:59:09.335Z,-5.30
2022-12-13T17:05:10.962Z,-5.40
2022-12-13T17:11:17.853Z,-5.30
2022-12-13T17:17:20.160Z,-5.50
2022-12-13T17:23:21.773Z,-5.70
2022-12-13T17:29:24.520Z,-5.50
2022-12-13T17:35:27.194Z,-5.50
2022-12-13T17:41:28.832Z,-5.30
2022-12-13T17:47:30.481Z,-5.50
2022-12-13T17:53:32.274Z,-5.60
2022-12-13T17:59:38.232Z,-5.60
2022-12-13T18:05:43.076Z,-5.70
2022-12-13T18:11:44.689Z,-5.60
2022-12-13T18:18:10.657Z,-5.60
2022-12-13T18:24:09.228Z,-5.60
2022-12-13T18:30:11.110Z,-5.60
2022-12-13T18:36:12.993Z,-5.60
2022-12-13T18:42:14.790Z,-5.60
2022-12-13T18:48:16.398Z,-5.60
2022-12-13T18:54:18.426Z,-5.60
2022-12-13T19:00:20.213Z,-5.60
2022-12-13T19:06:25.582Z,-5.60
2022-12-13T19:12:27.522Z,-5.60
2022-12-13T19:18:29.185Z,-5.60
2022-12-13T19:24:30.841Z,-5.60
2022-12-13T19:30:32.475Z,-5.70
2022-12-13T19:36:34.113Z,-5.60
2022-12-13T19:42:35.744Z,-5.60
2022-12-13T19:48:37.815Z,-5.60
2022-12-13T19:54:39.514Z,-5.50
2022-12-13T20:00:41.291Z,-5.50
2022-12-13T20:06:42.941Z,-5.60
2022-12-13T20:12:44.567Z,-5.40
2022-12-13T20:18:46.549Z,-5.50
2022-12-13T20:24:48.228Z,-5.60
2022-12-13T20:30:50.345Z,-5.50
2022-12-13T20:36:52.005Z,-5.60
2022-12-13T20:42:53.590Z,-5.40
2022-12-13T20:48:56.108Z,-5.50
2022-12-13T20:54:57.734Z,-5.50
2022-12-13T21:00:59.430Z,-5.50
2022-12-13T21:07:02.623Z,-5.50
2022-12-13T21:13:04.306Z,-5.50
2022-12-13T21:19:06.343Z,-5.50
2022-12-13T21:25:08.189Z,-5.40
2022-12-13T21:31:11.358Z,-5.40
2022-12-13T21:37:13.097Z,-5.40
2022-12-13T21:43:15.474Z,-5.40
2022-12-13T21:49:17.214Z,-5.30
2022-12-13T22:02:09.695Z,-5.30
2022-12-13T22:08:13.189Z,-5.30
2022-12-13T22:14:14.834Z,-5.30
2022-12-13T22:20:16.548Z,-5.40
2022-12-13T22:26:18.278Z,-5.40
2022-12-13T22:32:20.218Z,-5.30
2022-12-13T22:38:21.849Z,-5.40
2022-12-13T22:44:23.531Z,-5.40
2022-12-13T22:50:25.355Z,-5.40
2022-12-13T22:56:27.096Z,-5.30
2022-12-13T23:02:28.807Z,-5.40
2022-12-13T23:08:30.475Z,-5.30
2022-12-13T23:14:33.251Z,-5.30
2022-12-13T23:20:34.962Z,-5.30
2022-12-13T23:26:36.698Z,-5.40
2022-12-13T23:32:38.349Z,-5.40
2022-12-13T23:38:40.859Z,-5.50
2022-12-13T23:44:42.480Z,-5.50
2022-12-13T23:50:44.120Z,-5.50
2022-12-13T23:56:46.438Z,-5.60
